createdAt,value
2019-05-03T00:00:11.523Z,0
2019-05-03T00:01:12.855Z,0
2019-05-03T00:02:12.312Z,0
2019-05-03T00:03:12.033Z,0
2019-05-03T00:04:12.001Z,0
2019-05-03T00:05:12.542Z,0
2019-05-03T00:06:12.112Z,0
2019-05-03T00:07:14.200Z,0
2019-05-03T00:08:12.618Z,0
2019-05-03T00:09:11.892Z,0
2019-05-03T00:10:12.825Z,0
2019-05-03T00:11:12.516Z,0
2019-05-03T00:12:12.629Z,0
2019-05-03T00:13:12.450Z,0
2019-05-03T00:14:12.418Z,0
2019-05-03T00:15:12.094Z,0
2019-05-03T00:16:12.199Z,0
2019-05-03T00:17:11.800Z,0
2019-05-03T00:18:14.082Z,0
2019-05-03T00:19:12.689Z,0
2019-05-03T00:20:14.031Z,0
2019-05-03T00:21:14.024Z,0
2019-05-03T00:22:12.342Z,0
2019-05-03T00:23:12.134Z,0
2019-05-03T00:24:11.924Z,0
2019-05-03T00:25:17.329Z,0
2019-05-03T00:26:12.032Z,0
2019-05-03T00:27:12.464Z,0
2019-05-03T00:28:13.272Z,0
2019-05-03T00:29:12.711Z,0
2019-05-03T00:30:12.028Z,0
2019-05-03T00:31:12.434Z,0
2019-05-03T00:32:12.442Z,0
2019-05-03T00:33:11.820Z,0
2019-05-03T00:34:12.472Z,0
2019-05-03T00:35:12.078Z,0
2019-05-03T00:36:13.975Z,0
2019-05-03T00:37:12.573Z,0
2019-05-03T00:38:12.285Z,0
2019-05-03T00:39:12.188Z,0
2019-05-03T00:40:12.233Z,0
2019-05-03T00:41:12.168Z,0
2019-05-03T00:42:11.975Z,0
2019-05-03T00:43:13.977Z,0
2019-05-03T00:44:13.899Z,0
2019-05-03T00:45:12.536Z,0
2019-05-03T00:46:12.596Z,0
2019-05-03T00:47:12.560Z,0
2019-05-03T00:48:12.383Z,0
2019-05-03T00:49:11.956Z,0
2019-05-03T00:50:12.007Z,0
2019-05-03T00:51:11.813Z,0
2019-05-03T00:52:11.754Z,0
2019-05-03T00:53:14.024Z,0
2019-05-03T00:54:12.694Z,0
2019-05-03T00:55:24.529Z,0
2019-05-03T00:56:12.227Z,0
2019-05-03T00:57:12.049Z,0
2019-05-03T00:58:11.811Z,0
2019-05-03T00:59:12.639Z,0
2019-05-03T01:00:12.344Z,0
2019-05-03T01:01:11.813Z,0
2019-05-03T01:02:11.940Z,0
2019-05-03T01:03:12.528Z,0
2019-05-03T01:04:11.949Z,0
2019-05-03T01:05:11.925Z,0
2019-05-03T01:06:11.792Z,0
2019-05-03T01:07:13.812Z,0
2019-05-03T01:08:12.629Z,0
2019-05-03T01:09:11.858Z,0
2019-05-03T01:10:11.860Z,0
2019-05-03T01:11:12.615Z,0
2019-05-03T01:12:12.570Z,0
2019-05-03T01:13:12.324Z,0
2019-05-03T01:14:11.954Z,0
2019-05-03T01:15:12.369Z,0
2019-05-03T01:16:11.876Z,0
2019-05-03T01:17:11.875Z,0
2019-05-03T01:18:12.295Z,0
2019-05-03T01:19:12.055Z,0
2019-05-03T01:20:11.996Z,0
2019-05-03T01:21:11.732Z,0
2019-05-03T01:22:11.861Z,0
2019-05-03T01:23:12.415Z,0
2019-05-03T01:24:12.273Z,0
2019-05-03T01:25:12.028Z,0
2019-05-03T01:26:11.834Z,0
2019-05-03T01:27:12.406Z,0
2019-05-03T01:28:12.212Z,0
2019-05-03T01:29:12.193Z,0
2019-05-03T01:30:11.950Z,0
2019-05-03T01:31:11.939Z,0
2019-05-03T01:32:11.551Z,0
2019-05-03T01:33:12.107Z,0
2019-05-03T01:34:12.478Z,0
2019-05-03T01:35:12.267Z,0
2019-05-03T01:36:11.994Z,0
2019-05-03T01:37:11.965Z,0
2019-05-03T01:38:11.750Z,0
2019-05-03T01:39:12.733Z,0
2019-05-03T01:40:12.509Z,0
2019-05-03T01:41:12.276Z,0
2019-05-03T01:42:11.923Z,0
2019-05-03T01:43:11.734Z,0
2019-05-03T01:44:12.465Z,0
2019-05-03T01:45:12.021Z,0
2019-05-03T01:46:11.963Z,0
2019-05-03T01:47:11.579Z,0
2019-05-03T01:48:12.508Z,0
2019-05-03T01:49:12.255Z,0
2019-05-03T01:50:12.142Z,0
2019-05-03T01:51:11.820Z,0
2019-05-03T01:52:12.769Z,0
2019-05-03T01:53:12.498Z,0
2019-05-03T01:54:12.239Z,0
2019-05-03T01:55:16.110Z,0
2019-05-03T01:56:11.791Z,0
2019-05-03T01:57:11.594Z,0
2019-05-03T01:58:12.486Z,0
2019-05-03T01:59:12.294Z,0
2019-05-03T02:00:11.742Z,0
2019-05-03T02:01:12.635Z,0
2019-05-03T02:02:14.900Z,0
2019-05-03T02:03:12.347Z,0
2019-05-03T02:04:12.204Z,0
2019-05-03T02:05:11.970Z,0
2019-05-03T02:06:11.877Z,0
2019-05-03T02:07:11.779Z,0
2019-05-03T02:08:12.550Z,0
2019-05-03T02:09:12.183Z,0
2019-05-03T02:10:11.857Z,0
2019-05-03T02:11:11.667Z,0
2019-05-03T02:12:12.709Z,0
2019-05-03T02:13:12.276Z,0
2019-05-03T02:14:12.335Z,0
2019-05-03T02:15:11.935Z,0
2019-05-03T02:16:11.556Z,0
2019-05-03T02:17:12.387Z,0
2019-05-03T02:18:14.430Z,0
2019-05-03T02:19:12.612Z,0
2019-05-03T02:20:12.529Z,0
2019-05-03T02:21:12.187Z,0
2019-05-03T02:22:12.015Z,0
2019-05-03T02:23:11.862Z,0
2019-05-03T02:24:11.771Z,0
2019-05-03T02:25:12.349Z,0
2019-05-03T02:26:11.751Z,0
2019-05-03T02:27:12.705Z,0
2019-05-03T02:28:12.597Z,0
2019-05-03T02:29:12.549Z,0
2019-05-03T02:30:14.041Z,0
2019-05-03T02:31:13.625Z,0
2019-05-03T02:32:13.142Z,0
2019-05-03T02:33:13.336Z,0
2019-05-03T02:34:12.495Z,0
2019-05-03T02:35:13.945Z,0
2019-05-03T02:36:13.550Z,0
2019-05-03T02:37:13.801Z,0
2019-05-03T02:38:12.945Z,0
2019-05-03T02:39:13.503Z,0
2019-05-03T02:40:12.957Z,0
2019-05-03T02:41:13.404Z,0
2019-05-03T02:42:20.949Z,0
2019-05-03T02:43:12.233Z,0
2019-05-03T02:44:15.532Z,0
2019-05-03T02:45:15.299Z,0
2019-05-03T02:46:13.114Z,0
2019-05-03T02:47:12.869Z,0
2019-05-03T02:48:13.298Z,0
2019-05-03T02:49:15.328Z,0
2019-05-03T02:50:12.819Z,0
2019-05-03T02:51:15.577Z,0
2019-05-03T02:52:15.096Z,0
2019-05-03T02:53:12.980Z,0
2019-05-03T02:54:15.490Z,0
2019-05-03T02:55:15.961Z,0
2019-05-03T02:56:30.863Z,0
2019-05-03T02:57:15.017Z,0
2019-05-03T02:58:12.797Z,0
2019-05-03T02:59:15.698Z,0
2019-05-03T03:00:12.253Z,0
2019-05-03T03:01:16.164Z,0
2019-05-03T03:02:15.155Z,0
2019-05-03T03:03:12.770Z,0
2019-05-03T03:04:12.292Z,0
2019-05-03T03:05:12.999Z,0
2019-05-03T03:06:15.631Z,0
2019-05-03T03:07:15.011Z,0
2019-05-03T03:08:12.673Z,0
2019-05-03T03:09:12.125Z,0
2019-05-03T03:10:12.073Z,0
2019-05-03T03:11:15.535Z,0
2019-05-03T03:12:15.218Z,0
2019-05-03T03:13:12.916Z,0
2019-05-03T03:14:12.567Z,0
2019-05-03T03:15:12.964Z,0
2019-05-03T03:16:15.183Z,0
2019-05-03T03:17:14.876Z,0
2019-05-03T03:18:15.604Z,0
2019-05-03T03:19:15.853Z,0
2019-05-03T03:20:12.258Z,0
2019-05-03T03:21:15.644Z,0
2019-05-03T03:22:15.797Z,0
2019-05-03T03:23:19.905Z,0
2019-05-03T03:24:13.850Z,0
2019-05-03T03:25:12.686Z,0
2019-05-03T03:26:15.505Z,0
2019-05-03T03:27:12.583Z,0
2019-05-03T03:28:12.287Z,0
2019-05-03T03:29:15.296Z,0
2019-05-03T03:30:17.260Z,0
2019-05-03T03:31:20.046Z,0
2019-05-03T03:32:20.480Z,0
2019-05-03T03:33:19.854Z,0
2019-05-03T03:34:20.636Z,0
2019-05-03T03:35:32.049Z,0
2019-05-03T03:37:10.460Z,0
2019-05-03T03:37:25.731Z,0
2019-05-03T03:38:22.596Z,0
2019-05-03T03:39:22.345Z,0
2019-05-03T03:40:25.227Z,4
2019-05-03T03:41:24.911Z,4
2019-05-03T03:42:25.122Z,4
2019-05-03T03:43:22.675Z,4
2019-05-03T03:44:25.363Z,0
2019-05-03T03:45:25.331Z,4
2019-05-03T03:46:25.101Z,4
2019-05-03T03:47:26.896Z,4
2019-05-03T03:48:23.117Z,4
2019-05-03T03:49:22.541Z,4
2019-05-03T03:50:22.554Z,4
2019-05-03T03:51:22.626Z,4
2019-05-03T03:52:25.292Z,4
2019-05-03T03:53:22.791Z,8
2019-05-03T03:54:22.570Z,8
2019-05-03T03:55:26.146Z,8
2019-05-03T03:56:25.529Z,8
2019-05-03T03:57:25.207Z,8
2019-05-03T03:58:31.507Z,12
2019-05-03T03:59:22.751Z,12
2019-05-03T04:00:25.745Z,16
2019-05-03T04:01:22.539Z,16
2019-05-03T04:02:22.876Z,20
2019-05-03T04:03:25.654Z,20
2019-05-03T04:04:25.708Z,24
2019-05-03T04:05:25.334Z,28
2019-05-03T04:06:22.307Z,36
2019-05-03T04:07:22.516Z,40
2019-05-03T04:08:25.039Z,52
2019-05-03T04:09:25.504Z,64
2019-05-03T04:10:22.702Z,84
2019-05-03T04:11:22.941Z,108
2019-05-03T04:12:26.348Z,124
2019-05-03T04:13:25.492Z,144
2019-05-03T04:14:25.262Z,172
2019-05-03T04:15:25.743Z,192
2019-05-03T04:16:30.291Z,224
2019-05-03T04:17:22.468Z,248
2019-05-03T04:18:25.424Z,284
2019-05-03T04:19:25.086Z,312
2019-05-03T04:20:25.390Z,344
2019-05-03T04:21:25.444Z,376
2019-05-03T04:22:25.357Z,400
2019-05-03T04:23:26.046Z,416
2019-05-03T04:24:25.670Z,428
2019-05-03T04:25:22.695Z,436
2019-05-03T04:26:27.442Z,432
2019-05-03T04:27:32.238Z,428
2019-05-03T04:28:25.499Z,428
2019-05-03T04:29:25.259Z,436
2019-05-03T04:30:25.633Z,440
2019-05-03T04:31:22.384Z,448
2019-05-03T04:32:29.065Z,484
2019-05-03T04:33:23.321Z,520
2019-05-03T04:34:22.905Z,572
2019-05-03T04:35:26.189Z,612
2019-05-03T04:36:25.947Z,652
2019-05-03T04:37:23.015Z,696
2019-05-03T04:38:25.539Z,732
2019-05-03T04:39:30.347Z,748
2019-05-03T04:40:22.929Z,772
2019-05-03T04:41:26.609Z,820
2019-05-03T04:42:25.320Z,876
2019-05-03T04:43:26.123Z,936
2019-05-03T04:44:22.862Z,980
2019-05-03T04:45:25.463Z,1012
2019-05-03T04:46:25.802Z,1024
2019-05-03T04:47:23.026Z,1000
2019-05-03T04:48:25.274Z,1020
2019-05-03T04:49:22.559Z,1036
2019-05-03T04:50:25.435Z,1060
2019-05-03T04:51:25.800Z,1040
2019-05-03T04:52:25.821Z,1060
2019-05-03T04:53:25.786Z,1124
2019-05-03T04:54:25.200Z,1184
2019-05-03T04:55:26.219Z,1212
2019-05-03T04:56:25.866Z,1188
2019-05-03T04:57:50.495Z,1176
2019-05-03T04:58:25.671Z,1164
2019-05-03T04:59:25.404Z,1180
2019-05-03T05:00:25.553Z,1172
2019-05-03T05:01:30.884Z,1176
2019-05-03T05:02:25.871Z,1160
2019-05-03T05:03:22.245Z,1140
2019-05-03T05:04:25.361Z,1060
2019-05-03T05:05:22.288Z,988
2019-05-03T05:06:22.772Z,920
2019-05-03T05:07:22.705Z,932
2019-05-03T05:08:25.253Z,936
2019-05-03T05:09:22.679Z,1016
2019-05-03T05:10:25.695Z,1152
2019-05-03T05:11:22.597Z,1256
2019-05-03T05:12:25.144Z,1332
2019-05-03T05:13:24.814Z,1324
2019-05-03T05:14:22.676Z,1324
2019-05-03T05:15:22.470Z,1292
2019-05-03T05:16:25.107Z,1296
2019-05-03T05:17:26.073Z,1328
2019-05-03T05:18:26.140Z,1336
2019-05-03T05:19:22.193Z,1248
2019-05-03T05:20:21.929Z,1252
2019-05-03T05:21:22.463Z,1280
2019-05-03T05:22:24.571Z,1220
2019-05-03T05:23:22.168Z,1172
2019-05-03T05:24:22.164Z,1116
2019-05-03T05:25:21.914Z,1076
2019-05-03T05:26:21.924Z,996
2019-05-03T05:27:21.887Z,872
2019-05-03T05:28:22.381Z,772
2019-05-03T05:29:21.900Z,692
2019-05-03T05:30:22.404Z,632
2019-05-03T05:31:21.998Z,624
2019-05-03T05:32:21.876Z,604
2019-05-03T05:33:22.365Z,580
2019-05-03T05:34:24.437Z,552
2019-05-03T05:35:22.121Z,488
2019-05-03T05:36:24.282Z,436
2019-05-03T05:37:22.098Z,404
2019-05-03T05:38:21.841Z,404
2019-05-03T05:39:26.906Z,388
2019-05-03T05:40:22.077Z,364
2019-05-03T05:41:24.449Z,356
2019-05-03T05:42:22.327Z,392
2019-05-03T05:43:22.229Z,436
2019-05-03T05:44:21.827Z,460
2019-05-03T05:45:24.318Z,460
2019-05-03T05:46:22.125Z,464
2019-05-03T05:47:22.070Z,484
2019-05-03T05:48:24.402Z,500
2019-05-03T05:49:22.056Z,516
2019-05-03T05:50:21.808Z,528
2019-05-03T05:51:24.494Z,520
2019-05-03T05:52:24.312Z,516
2019-05-03T05:53:22.005Z,516
2019-05-03T05:54:22.275Z,520
2019-05-03T05:55:22.030Z,532
2019-05-03T05:56:22.701Z,548
2019-05-03T05:57:22.035Z,572
2019-05-03T05:58:25.371Z,600
2019-05-03T05:59:21.778Z,640
2019-05-03T06:00:22.288Z,688
2019-05-03T06:01:21.886Z,740
2019-05-03T06:02:22.012Z,804
2019-05-03T06:03:21.744Z,856
2019-05-03T06:04:21.894Z,900
2019-05-03T06:05:22.271Z,924
2019-05-03T06:06:24.109Z,912
2019-05-03T06:07:22.250Z,888
2019-05-03T06:08:22.092Z,856
2019-05-03T06:09:22.279Z,836
2019-05-03T06:10:24.816Z,852
2019-05-03T06:11:22.029Z,852
2019-05-03T06:12:22.064Z,872
2019-05-03T06:13:22.451Z,948
2019-05-03T06:14:22.218Z,1008
2019-05-03T06:15:24.378Z,1056
2019-05-03T06:16:24.478Z,1064
2019-05-03T06:17:22.171Z,1024
2019-05-03T06:18:21.680Z,984
2019-05-03T06:19:21.931Z,1032
2019-05-03T06:20:22.257Z,1112
2019-05-03T06:21:21.969Z,1144
2019-05-03T06:22:22.565Z,1256
2019-05-03T06:23:21.890Z,1420
2019-05-03T06:24:21.918Z,1388
2019-05-03T06:25:26.435Z,1448
2019-05-03T06:26:22.627Z,1552
2019-05-03T06:27:24.364Z,1428
2019-05-03T06:28:29.708Z,1252
2019-05-03T06:29:22.231Z,1188
2019-05-03T06:30:21.918Z,1152
2019-05-03T06:31:27.697Z,1152
2019-05-03T06:32:22.073Z,1276
2019-05-03T06:33:22.098Z,1492
2019-05-03T06:34:22.228Z,1856
2019-05-03T06:35:21.631Z,2060
2019-05-03T06:36:24.235Z,2152
2019-05-03T06:37:21.826Z,2196
2019-05-03T06:38:21.960Z,2240
2019-05-03T06:39:22.408Z,2268
2019-05-03T06:40:22.011Z,2300
2019-05-03T06:41:22.070Z,2308
2019-05-03T06:42:27.705Z,2252
2019-05-03T06:43:24.275Z,2180
2019-05-03T06:44:31.783Z,2140
2019-05-03T06:45:22.083Z,2156
2019-05-03T06:46:35.436Z,2208
2019-05-03T06:47:22.171Z,2280
2019-05-03T06:48:31.946Z,2412
2019-05-03T06:49:22.471Z,2452
2019-05-03T06:50:32.330Z,2548
2019-05-03T06:51:27.114Z,2648
2019-05-03T06:52:30.472Z,2728
2019-05-03T06:53:22.477Z,2748
2019-05-03T06:54:30.712Z,2708
2019-05-03T06:55:21.979Z,2652
2019-05-03T06:56:30.174Z,2532
2019-05-03T06:57:21.804Z,2460
2019-05-03T06:58:38.695Z,2424
2019-05-03T06:59:21.739Z,2440
2019-05-03T07:00:24.617Z,2516
2019-05-03T07:01:21.879Z,2652
2019-05-03T07:02:21.577Z,2792
2019-05-03T07:03:22.356Z,2936
2019-05-03T07:04:24.335Z,3076
2019-05-03T07:05:22.206Z,3228
2019-05-03T07:06:40.246Z,3432
2019-05-03T07:07:22.501Z,3560
2019-05-03T07:08:22.389Z,3716
2019-05-03T07:09:21.958Z,3812
2019-05-03T07:10:21.963Z,3908
2019-05-03T07:11:24.564Z,4000
2019-05-03T07:12:21.606Z,4100
2019-05-03T07:13:22.201Z,4268
2019-05-03T07:14:24.481Z,4448
2019-05-03T07:15:21.423Z,4548
2019-05-03T07:16:22.240Z,4548
2019-05-03T07:17:21.393Z,4540
2019-05-03T07:18:24.697Z,4584
2019-05-03T07:19:21.759Z,4728
2019-05-03T07:20:21.979Z,4980
2019-05-03T07:21:22.455Z,5164
2019-05-03T07:22:24.302Z,5192
2019-05-03T07:23:24.335Z,5088
2019-05-03T07:24:21.419Z,4900
2019-05-03T07:25:21.912Z,4616
2019-05-03T07:26:21.884Z,4304
2019-05-03T07:27:24.539Z,4028
2019-05-03T07:28:21.792Z,3828
2019-05-03T07:29:22.471Z,3700
2019-05-03T07:30:24.525Z,3612
2019-05-03T07:31:22.435Z,3544
2019-05-03T07:32:24.643Z,3492
2019-05-03T07:33:22.278Z,3464
2019-05-03T07:34:24.597Z,3416
2019-05-03T07:35:21.976Z,3376
2019-05-03T07:36:25.138Z,3320
2019-05-03T07:37:21.315Z,3260
2019-05-03T07:38:24.544Z,3200
2019-05-03T07:39:21.829Z,3124
2019-05-03T07:40:22.053Z,3036
2019-05-03T07:41:25.027Z,3012
2019-05-03T07:42:22.623Z,3020
2019-05-03T07:43:24.481Z,3024
2019-05-03T07:44:22.416Z,3124
2019-05-03T07:45:22.068Z,3352
2019-05-03T07:46:21.791Z,3596
2019-05-03T07:47:22.080Z,3864
2019-05-03T07:48:22.354Z,4184
2019-05-03T07:49:22.568Z,4548
2019-05-03T07:50:22.476Z,4836
2019-05-03T07:51:21.847Z,5000
2019-05-03T07:52:21.827Z,4984
2019-05-03T07:53:21.829Z,4856
2019-05-03T07:54:24.615Z,4704
2019-05-03T07:55:22.199Z,4544
2019-05-03T07:56:22.735Z,4420
2019-05-03T07:57:22.789Z,4364
2019-05-03T07:58:22.229Z,4372
2019-05-03T07:59:22.199Z,4408
2019-05-03T08:00:21.971Z,4440
2019-05-03T08:01:22.306Z,4520
2019-05-03T08:02:24.167Z,4668
2019-05-03T08:03:24.316Z,4928
2019-05-03T08:04:22.379Z,5220
2019-05-03T08:05:24.554Z,5612
2019-05-03T08:06:21.750Z,6092
2019-05-03T08:07:30.549Z,6772
2019-05-03T08:08:21.960Z,7288
2019-05-03T08:09:24.462Z,7804
2019-05-03T08:10:22.247Z,8172
2019-05-03T08:11:21.865Z,8424
2019-05-03T08:12:22.658Z,8592
2019-05-03T08:13:22.394Z,8760
2019-05-03T08:14:25.280Z,9012
2019-05-03T08:15:24.517Z,9216
2019-05-03T08:16:25.037Z,9380
2019-05-03T08:17:22.163Z,9560
2019-05-03T08:18:22.302Z,9788
2019-05-03T08:19:26.940Z,9972
2019-05-03T08:20:21.658Z,10144
2019-05-03T08:21:21.925Z,12244
2019-05-03T08:22:22.494Z,10448
2019-05-03T08:23:37.604Z,10616
2019-05-03T08:24:21.953Z,10768
2019-05-03T08:25:21.343Z,10960
2019-05-03T08:26:22.283Z,11136
2019-05-03T08:27:21.808Z,11244
2019-05-03T08:28:21.455Z,11232
2019-05-03T08:29:27.327Z,11164
2019-05-03T08:30:21.667Z,11028
2019-05-03T08:31:23.978Z,10920
2019-05-03T08:32:24.436Z,10764
2019-05-03T08:33:21.994Z,10704
2019-05-03T08:34:22.340Z,10480
2019-05-03T08:35:24.262Z,10448
2019-05-03T08:36:24.622Z,10588
2019-05-03T08:37:24.357Z,10828
2019-05-03T08:38:22.226Z,11028
2019-05-03T08:39:24.984Z,11168
2019-05-03T08:40:24.403Z,11324
2019-05-03T08:41:21.718Z,12280
2019-05-03T08:42:21.910Z,11632
2019-05-03T08:43:22.521Z,11560
2019-05-03T08:44:21.513Z,11648
2019-05-03T08:45:21.796Z,11556
2019-05-03T08:46:21.816Z,11580
2019-05-03T08:47:24.411Z,11696
2019-05-03T08:48:21.897Z,11576
2019-05-03T08:49:21.691Z,11872
2019-05-03T08:50:30.463Z,11656
2019-05-03T08:51:21.959Z,11472
2019-05-03T08:52:24.711Z,10876
2019-05-03T08:53:22.619Z,11092
2019-05-03T08:54:22.236Z,11364
2019-05-03T08:55:24.776Z,12148
2019-05-03T08:56:24.531Z,11700
2019-05-03T08:57:21.941Z,12412
2019-05-03T08:58:22.819Z,10900
2019-05-03T08:59:37.961Z,10496
2019-05-03T09:00:21.196Z,10232
2019-05-03T09:01:21.894Z,9660
2019-05-03T09:02:25.742Z,9044
2019-05-03T09:03:21.463Z,8548
2019-05-03T09:04:34.111Z,8360
2019-05-03T09:05:27.465Z,8368
2019-05-03T09:06:24.670Z,8328
2019-05-03T09:07:21.904Z,8104
2019-05-03T09:08:24.839Z,8144
2019-05-03T09:09:22.243Z,8428
2019-05-03T09:10:24.904Z,8692
2019-05-03T09:11:39.047Z,9044
2019-05-03T09:12:21.477Z,9144
2019-05-03T09:13:22.013Z,9644
2019-05-03T09:14:22.125Z,10528
2019-05-03T09:15:24.606Z,11584
2019-05-03T09:16:22.188Z,13232
2019-05-03T09:17:24.430Z,14184
2019-05-03T09:18:25.766Z,15464
2019-05-03T09:19:21.872Z,14864
2019-05-03T09:20:22.533Z,12488
2019-05-03T09:21:22.050Z,11720
2019-05-03T09:22:21.717Z,11084
2019-05-03T09:23:23.894Z,10460
2019-05-03T09:24:24.425Z,9944
2019-05-03T09:25:24.203Z,9556
2019-05-03T09:26:22.207Z,9304
2019-05-03T09:27:24.490Z,9108
2019-05-03T09:28:22.103Z,8932
2019-05-03T09:29:21.256Z,8788
2019-05-03T09:30:21.598Z,8540
2019-05-03T09:31:24.637Z,8176
2019-05-03T09:32:22.213Z,7756
2019-05-03T09:33:24.638Z,7464
2019-05-03T09:34:21.761Z,7476
2019-05-03T09:35:40.460Z,7960
2019-05-03T09:36:21.782Z,8200
2019-05-03T09:37:22.478Z,8380
2019-05-03T09:38:21.784Z,8384
2019-05-03T09:39:21.870Z,8580
2019-05-03T09:40:22.075Z,8700
2019-05-03T09:41:22.380Z,8624
2019-05-03T09:42:24.563Z,8232
2019-05-03T09:43:22.253Z,8292
2019-05-03T09:44:22.047Z,8620
2019-05-03T09:45:22.059Z,8876
2019-05-03T09:46:24.084Z,9168
2019-05-03T09:47:21.655Z,9476
2019-05-03T09:48:22.397Z,9660
2019-05-03T09:49:25.297Z,10048
2019-05-03T09:50:24.569Z,11484
2019-05-03T09:51:22.178Z,10860
2019-05-03T09:52:24.956Z,13016
2019-05-03T09:53:21.934Z,14956
2019-05-03T09:54:22.101Z,12272
2019-05-03T09:55:21.464Z,12496
2019-05-03T09:56:22.500Z,10352
2019-05-03T09:57:24.561Z,9244
2019-05-03T09:58:22.576Z,8836
2019-05-03T09:59:21.971Z,8732
2019-05-03T10:00:24.520Z,8848
2019-05-03T10:01:22.092Z,9004
2019-05-03T10:02:24.484Z,8800
2019-05-03T10:03:21.551Z,8448
2019-05-03T10:04:22.930Z,8316
2019-05-03T10:05:22.305Z,8356
2019-05-03T10:06:25.016Z,8448
2019-05-03T10:07:22.025Z,8824
2019-05-03T10:08:25.239Z,9504
2019-05-03T10:09:22.681Z,10644
2019-05-03T10:10:24.610Z,14620
2019-05-03T10:11:22.871Z,14508
2019-05-03T10:12:25.278Z,13816
2019-05-03T10:13:37.776Z,13192
2019-05-03T10:14:22.250Z,11696
2019-05-03T10:15:22.513Z,10888
2019-05-03T10:16:24.854Z,10276
2019-05-03T10:17:22.642Z,9572
2019-05-03T10:18:21.561Z,8980
2019-05-03T10:19:40.229Z,8032
2019-05-03T10:20:22.064Z,7716
2019-05-03T10:21:21.727Z,7516
2019-05-03T10:22:22.585Z,7364
2019-05-03T10:23:21.604Z,7188
2019-05-03T10:24:22.380Z,6988
2019-05-03T10:25:21.333Z,6824
2019-05-03T10:26:22.077Z,6796
2019-05-03T10:27:22.120Z,6972
2019-05-03T10:28:21.953Z,7384
2019-05-03T10:29:21.682Z,8064
2019-05-03T10:30:23.514Z,11560
2019-05-03T10:31:21.450Z,12300
2019-05-03T10:32:22.703Z,13064
2019-05-03T10:33:22.549Z,13284
2019-05-03T10:34:24.432Z,13428
2019-05-03T10:35:24.395Z,13364
2019-05-03T10:36:24.693Z,13272
2019-05-03T10:37:22.045Z,12872
2019-05-03T10:38:24.417Z,10904
2019-05-03T10:39:22.653Z,10580
2019-05-03T10:40:21.321Z,10260
2019-05-03T10:41:21.308Z,8136
2019-05-03T10:42:21.284Z,7464
2019-05-03T10:43:21.127Z,6964
2019-05-03T10:44:21.793Z,6208
2019-05-03T10:45:24.986Z,5640
2019-05-03T10:46:24.920Z,5232
2019-05-03T10:47:21.424Z,4948
2019-05-03T10:48:24.614Z,4716
2019-05-03T10:49:22.047Z,4512
2019-05-03T10:50:22.320Z,4316
2019-05-03T10:51:24.781Z,4160
2019-05-03T10:52:21.926Z,4088
2019-05-03T10:53:22.104Z,4116
2019-05-03T10:54:21.345Z,4300
2019-05-03T10:55:24.834Z,4496
2019-05-03T10:56:31.203Z,4804
2019-05-03T10:57:24.623Z,5016
2019-05-03T10:58:25.001Z,5036
2019-05-03T10:59:21.131Z,4788
2019-05-03T11:00:59.154Z,4016
2019-05-03T11:01:21.562Z,3836
2019-05-03T11:02:21.271Z,3580
2019-05-03T11:03:21.510Z,3540
2019-05-03T11:04:21.846Z,3632
2019-05-03T11:05:21.344Z,3772
2019-05-03T11:06:21.889Z,3924
2019-05-03T11:07:21.617Z,4112
2019-05-03T11:08:21.533Z,4320
2019-05-03T11:09:22.262Z,4532
2019-05-03T11:10:21.416Z,4740
2019-05-03T11:11:21.871Z,4976
2019-05-03T11:12:21.522Z,5312
2019-05-03T11:13:22.736Z,5804
2019-05-03T11:14:22.118Z,6456
2019-05-03T11:15:21.927Z,7148
2019-05-03T11:16:21.772Z,7752
2019-05-03T11:17:21.858Z,8260
2019-05-03T11:18:21.715Z,8564
2019-05-03T11:19:21.752Z,8652
2019-05-03T11:20:37.105Z,8536
2019-05-03T11:21:37.275Z,8264
2019-05-03T11:22:22.089Z,8160
2019-05-03T11:23:21.609Z,8028
2019-05-03T11:24:24.952Z,7972
2019-05-03T11:25:21.286Z,8100
2019-05-03T11:26:21.729Z,8172
2019-05-03T11:27:21.244Z,8260
2019-05-03T11:28:21.660Z,8496
2019-05-03T11:29:24.648Z,8796
2019-05-03T11:30:24.645Z,9200
2019-05-03T11:31:24.721Z,9940
2019-05-03T11:32:21.861Z,9672
2019-05-03T11:33:22.189Z,9428
2019-05-03T11:34:27.066Z,10796
2019-05-03T11:35:21.686Z,11236
2019-05-03T11:36:22.973Z,9000
2019-05-03T11:37:21.458Z,10740
2019-05-03T11:38:25.224Z,10256
2019-05-03T11:39:21.143Z,10512
2019-05-03T11:40:25.002Z,9428
2019-05-03T11:41:38.269Z,8412
2019-05-03T11:42:24.516Z,8436
2019-05-03T11:43:24.538Z,8020
2019-05-03T11:44:22.058Z,7824
2019-05-03T11:45:24.487Z,7656
2019-05-03T11:46:21.753Z,7600
2019-05-03T11:47:24.703Z,7716
2019-05-03T11:48:22.875Z,7684
2019-05-03T11:49:21.809Z,7592
2019-05-03T11:50:25.257Z,7484
2019-05-03T11:51:22.234Z,7436
2019-05-03T11:52:25.682Z,7432
2019-05-03T11:53:21.810Z,7540
2019-05-03T11:54:24.946Z,7684
2019-05-03T11:55:26.574Z,7956
2019-05-03T11:56:22.393Z,8232
2019-05-03T11:57:23.926Z,8324
2019-05-03T11:58:21.836Z,8296
2019-05-03T11:59:21.694Z,8372
2019-05-03T12:00:21.935Z,8428
2019-05-03T12:01:28.109Z,8444
2019-05-03T12:02:22.028Z,8356
2019-05-03T12:03:24.687Z,8236
2019-05-03T12:04:22.274Z,8152
2019-05-03T12:05:24.347Z,8096
2019-05-03T12:06:24.780Z,8104
2019-05-03T12:07:36.361Z,8264
2019-05-03T12:08:21.167Z,8632
2019-05-03T12:09:22.644Z,9032
2019-05-03T12:11:02.995Z,9456
2019-05-03T12:11:24.309Z,9520
2019-05-03T12:12:22.313Z,9844
2019-05-03T12:13:24.555Z,10080
2019-05-03T12:14:24.396Z,9832
2019-05-03T12:15:21.566Z,9864
2019-05-03T12:17:28.987Z,10104
2019-05-03T12:18:01.090Z,10092
2019-05-03T12:18:59.399Z,10020
2019-05-03T12:19:47.063Z,10000
2019-05-03T12:20:46.952Z,9844
2019-05-03T12:21:44.079Z,9704
2019-05-03T12:22:43.024Z,9544
2019-05-03T12:23:45.442Z,9780
2019-05-03T12:24:42.581Z,9828
2019-05-03T12:25:45.516Z,10852
2019-05-03T12:26:51.586Z,10732
2019-05-03T12:27:39.758Z,10760
2019-05-03T12:28:40.134Z,9104
2019-05-03T12:29:39.832Z,9372
2019-05-03T12:30:40.389Z,9752
2019-05-03T12:31:47.786Z,10124
2019-05-03T12:32:41.647Z,10212
2019-05-03T12:33:40.240Z,10212
2019-05-03T12:34:40.058Z,10228
2019-05-03T12:35:40.693Z,10224
2019-05-03T12:36:43.563Z,10312
2019-05-03T12:37:40.233Z,10320
2019-05-03T12:38:41.840Z,10560
2019-05-03T12:39:40.720Z,11652
2019-05-03T12:40:39.613Z,11108
2019-05-03T12:41:39.308Z,12864
2019-05-03T12:42:40.131Z,11436
2019-05-03T12:43:39.306Z,12152
2019-05-03T12:44:40.316Z,11892
2019-05-03T12:45:39.967Z,11280
2019-05-03T12:46:40.173Z,11084
2019-05-03T12:47:40.853Z,11380
2019-05-03T12:48:40.363Z,12812
2019-05-03T12:49:40.770Z,12996
2019-05-03T12:50:42.763Z,12876
2019-05-03T12:51:39.368Z,13172
2019-05-03T12:52:55.375Z,13088
2019-05-03T12:53:39.630Z,12968
2019-05-03T12:54:40.261Z,12244
2019-05-03T12:55:40.256Z,12184
2019-05-03T12:56:41.835Z,11400
2019-05-03T12:57:41.552Z,10584
2019-05-03T12:58:39.030Z,10552
2019-05-03T12:59:40.507Z,10776
2019-05-03T13:00:39.060Z,11024
2019-05-03T13:01:50.181Z,11348
2019-05-03T13:02:39.325Z,11464
2019-05-03T13:03:39.314Z,11484
2019-05-03T13:04:39.066Z,11464
2019-05-03T13:05:40.181Z,11476
2019-05-03T13:06:39.219Z,11416
2019-05-03T13:07:39.375Z,11460
2019-05-03T13:08:39.842Z,11608
2019-05-03T13:09:40.297Z,11588
2019-05-03T13:10:39.250Z,11732
2019-05-03T13:12:00.886Z,11536
2019-05-03T13:12:55.972Z,11220
2019-05-03T13:13:40.533Z,11096
2019-05-03T13:14:41.490Z,10960
2019-05-03T13:15:40.028Z,11328
2019-05-03T13:16:39.928Z,10848
2019-05-03T13:17:39.074Z,10976
2019-05-03T13:18:39.904Z,11548
2019-05-03T13:19:39.803Z,10920
2019-05-03T13:20:40.608Z,10700
2019-05-03T13:21:39.895Z,9804
2019-05-03T13:22:39.631Z,8836
2019-05-03T13:23:42.142Z,8076
2019-05-03T13:24:41.499Z,7912
2019-05-03T13:25:40.444Z,8868
2019-05-03T13:26:39.745Z,8380
2019-05-03T13:27:39.737Z,8240
2019-05-03T13:28:38.833Z,8068
2019-05-03T13:29:39.684Z,8372
2019-05-03T13:30:41.369Z,8020
2019-05-03T13:31:39.320Z,8764
2019-05-03T13:32:39.771Z,9212
2019-05-03T13:33:39.626Z,9676
2019-05-03T13:34:41.386Z,8940
2019-05-03T13:35:39.759Z,8540
2019-05-03T13:36:39.790Z,8320
2019-05-03T13:37:40.439Z,8212
2019-05-03T13:38:39.502Z,8224
2019-05-03T13:39:40.764Z,8276
2019-05-03T13:40:40.242Z,8468
2019-05-03T13:41:39.746Z,8748